sensor_id;sensor_type;location;lat;lon;timestamp;P1;durP1;ratioP1;P2;durP2;ratioP2
30617;SDS011;17384;51.214;9.202;2023-01-10T00:01:47;12.95;;;5.63;;
30617;SDS011;17384;51.214;9.202;2023-01-10T00:04:13;11.30;;;5.97;;
30617;SDS011;17384;51.214;9.202;2023-01-10T00:06:38;10.75;;;5.55;;
30617;SDS011;17384;51.214;9.202;2023-01-10T00:09:04;15.82;;;5.82;;
30617;SDS011;17384;51.214;9.202;2023-01-10T00:11:29;15.90;;;5.75;;
30617;SDS011;17384;51.214;9.202;2023-01-10T00:14:13;8.75;;;5.40;;
30617;SDS011;17384;51.214;9.202;2023-01-10T00:16:39;15.95;;;6.47;;
30617;SDS011;17384;51.214;9.202;2023-01-10T00:19:06;8.88;;;5.35;;
30617;SDS011;17384;51.214;9.202;2023-01-10T00:21:33;13.45;;;5.18;;
30617;SDS011;17384;51.214;9.202;2023-01-10T00:23:59;7.72;;;5.38;;
30617;SDS011;17384;51.214;9.202;2023-01-10T00:26:43;10.02;;;5.07;;
30617;SDS011;17384;51.214;9.202;2023-01-10T00:29:19;10.32;;;5.43;;
30617;SDS011;17384;51.214;9.202;2023-01-10T00:31:47;9.45;;;5.18;;
30617;SDS011;17384;51.214;9.202;2023-01-10T00:34:15;7.93;;;5.18;;
30617;SDS011;17384;51.214;9.202;2023-01-10T00:36:40;13.23;;;6.57;;
30617;SDS011;17384;51.214;9.202;2023-01-10T00:39:06;11.10;;;5.70;;
30617;SDS011;17384;51.214;9.202;2023-01-10T00:41:31;8.43;;;4.90;;
30617;SDS011;17384;51.214;9.202;2023-01-10T00:44:15;11.00;;;5.32;;
30617;SDS011;17384;51.214;9.202;2023-01-10T00:46:41;7.63;;;5.05;;
30617;SDS011;17384;51.214;9.202;2023-01-10T00:49:06;6.38;;;4.50;;
30617;SDS011;17384;51.214;9.202;2023-01-10T00:51:36;8.00;;;4.43;;
30617;SDS011;17384;51.214;9.202;2023-01-10T00:54:02;10.98;;;4.70;;
30617;SDS011;17384;51.214;9.202;2023-01-10T00:56:27;7.35;;;4.50;;
30617;SDS011;17384;51.214;9.202;2023-01-10T00:58:53;8.30;;;4.68;;
30617;SDS011;17384;51.214;9.202;2023-01-10T01:01:18;9.27;;;4.40;;
30617;SDS011;17384;51.214;9.202;2023-01-10T01:03:44;11.00;;;4.85;;
30617;SDS011;17384;51.214;9.202;2023-01-10T01:06:09;13.35;;;4.30;;
30617;SDS011;17384;51.214;9.202;2023-01-10T01:08:35;10.35;;;4.70;;
30617;SDS011;17384;51.214;9.202;2023-01-10T01:11:00;8.45;;;5.28;;
30617;SDS011;17384;51.214;9.202;2023-01-10T01:13:26;9.32;;;5.38;;
30617;SDS011;17384;51.214;9.202;2023-01-10T01:15:51;8.70;;;6.10;;
30617;SDS011;17384;51.214;9.202;2023-01-10T01:18:18;9.40;;;5.22;;
30617;SDS011;17384;51.214;9.202;2023-01-10T01:20:45;9.73;;;4.88;;
30617;SDS011;17384;51.214;9.202;2023-01-10T01:23:12;8.07;;;4.85;;
30617;SDS011;17384;51.214;9.202;2023-01-10T01:25:38;7.10;;;4.72;;
30617;SDS011;17384;51.214;9.202;2023-01-10T01:28:04;10.93;;;4.53;;
30617;SDS011;17384;51.214;9.202;2023-01-10T01:30:29;7.60;;;4.78;;
30617;SDS011;17384;51.214;9.202;2023-01-10T01:32:55;6.75;;;4.90;;
30617;SDS011;17384;51.214;9.202;2023-01-10T01:35:21;9.35;;;5.13;;
30617;SDS011;17384;51.214;9.202;2023-01-10T01:37:46;8.25;;;5.13;;
30617;SDS011;17384;51.214;9.202;2023-01-10T01:40:18;10.25;;;4.30;;
30617;SDS011;17384;51.214;9.202;2023-01-10T01:42:46;5.90;;;4.57;;
30617;SDS011;17384;51.214;9.202;2023-01-10T01:47:48;4.70;;;4.07;;
30617;SDS011;17384;51.214;9.202;2023-01-10T01:50:31;15.13;;;4.40;;
30617;SDS011;17384;51.214;9.202;2023-01-10T01:53:21;7.35;;;3.88;;
30617;SDS011;17384;51.214;9.202;2023-01-10T01:55:53;8.18;;;4.05;;
30617;SDS011;17384;51.214;9.202;2023-01-10T01:58:23;9.90;;;4.35;;
30617;SDS011;17384;51.214;9.202;2023-01-10T02:00:56;7.63;;;3.45;;
30617;SDS011;17384;51.214;9.202;2023-01-10T02:03:22;6.13;;;3.50;;
30617;SDS011;17384;51.214;9.202;2023-01-10T02:05:49;4.78;;;3.22;;
30617;SDS011;17384;51.214;9.202;2023-01-10T02:08:14;14.70;;;4.07;;
30617;SDS011;17384;51.214;9.202;2023-01-10T02:10:42;8.85;;;3.72;;
30617;SDS011;17384;51.214;9.202;2023-01-10T02:13:17;5.43;;;3.50;;
30617;SDS011;17384;51.214;9.202;2023-01-10T02:15:44;8.02;;;3.65;;
30617;SDS011;17384;51.214;9.202;2023-01-10T02:18:10;7.40;;;3.15;;
30617;SDS011;17384;51.214;9.202;2023-01-10T02:23:38;8.73;;;3.13;;
30617;SDS011;17384;51.214;9.202;2023-01-10T02:37:18;8.88;;;3.28;;
30617;SDS011;17384;51.214;9.202;2023-01-10T02:39:57;8.40;;;3.85;;
30617;SDS011;17384;51.214;9.202;2023-01-10T02:45:09;11.38;;;3.60;;
30617;SDS011;17384;51.214;9.202;2023-01-10T02:47:40;11.77;;;4.20;;
30617;SDS011;17384;51.214;9.202;2023-01-10T02:50:21;10.57;;;3.92;;
30617;SDS011;17384;51.214;9.202;2023-01-10T02:53:02;13.68;;;3.92;;
30617;SDS011;17384;51.214;9.202;2023-01-10T02:56:21;11.77;;;4.45;;
30617;SDS011;17384;51.214;9.202;2023-01-10T03:01:05;6.15;;;3.70;;
30617;SDS011;17384;51.214;9.202;2023-01-10T03:03:50;9.25;;;3.80;;
30617;SDS011;17384;51.214;9.202;2023-01-10T03:06:41;6.90;;;3.67;;
30617;SDS011;17384;51.214;9.202;2023-01-10T03:09:33;10.98;;;3.85;;
30617;SDS011;17384;51.214;9.202;2023-01-10T03:14:36;10.93;;;3.55;;
30617;SDS011;17384;51.214;9.202;2023-01-10T03:17:05;13.95;;;3.90;;
30617;SDS011;17384;51.214;9.202;2023-01-10T03:19:34;6.60;;;3.40;;
30617;SDS011;17384;51.214;9.202;2023-01-10T03:22:06;5.97;;;3.25;;
30617;SDS011;17384;51.214;9.202;2023-01-10T03:24:41;10.43;;;4.10;;
30617;SDS011;17384;51.214;9.202;2023-01-10T03:30:26;8.82;;;3.92;;
30617;SDS011;17384;51.214;9.202;2023-01-10T03:32:47;9.88;;;4.05;;
30617;SDS011;17384;51.214;9.202;2023-01-10T03:35:13;13.13;;;4.30;;
30617;SDS011;17384;51.214;9.202;2023-01-10T03:40:21;8.68;;;3.70;;
30617;SDS011;17384;51.214;9.202;2023-01-10T03:42:55;14.02;;;3.90;;
30617;SDS011;17384;51.214;9.202;2023-01-10T03:45:54;10.35;;;3.70;;
30617;SDS011;17384;51.214;9.202;2023-01-10T03:48:26;10.23;;;3.72;;
30617;SDS011;17384;51.214;9.202;2023-01-10T03:50:56;9.00;;;3.55;;
30617;SDS011;17384;51.214;9.202;2023-01-10T03:53:27;10.25;;;3.95;;
30617;SDS011;17384;51.214;9.202;2023-01-10T03:55:52;11.43;;;3.75;;
30617;SDS011;17384;51.214;9.202;2023-01-10T03:58:18;9.38;;;3.35;;
30617;SDS011;17384;51.214;9.202;2023-01-10T04:00:46;6.05;;;2.80;;
30617;SDS011;17384;51.214;9.202;2023-01-10T04:03:12;7.63;;;3.03;;
30617;SDS011;17384;51.214;9.202;2023-01-10T04:05:38;6.82;;;3.03;;
30617;SDS011;17384;51.214;9.202;2023-01-10T04:08:04;6.00;;;3.50;;
30617;SDS011;17384;51.214;9.202;2023-01-10T04:10:29;13.18;;;3.25;;
30617;SDS011;17384;51.214;9.202;2023-01-10T04:12:58;9.23;;;3.35;;
30617;SDS011;17384;51.214;9.202;2023-01-10T04:15:24;11.85;;;3.13;;
30617;SDS011;17384;51.214;9.202;2023-01-10T04:17:50;8.93;;;3.00;;
30617;SDS011;17384;51.214;9.202;2023-01-10T04:20:15;5.78;;;2.83;;
30617;SDS011;17384;51.214;9.202;2023-01-10T04:22:41;10.70;;;3.45;;
30617;SDS011;17384;51.214;9.202;2023-01-10T04:25:08;12.25;;;3.17;;
30617;SDS011;17384;51.214;9.202;2023-01-10T04:27:34;5.82;;;2.97;;
30617;SDS011;17384;51.214;9.202;2023-01-10T04:29:59;12.38;;;4.82;;
30617;SDS011;17384;51.214;9.202;2023-01-10T04:32:25;19.98;;;6.63;;
30617;SDS011;17384;51.214;9.202;2023-01-10T04:34:50;17.45;;;7.00;;
30617;SDS011;17384;51.214;9.202;2023-01-10T04:37:17;33.33;;;10.45;;
30617;SDS011;17384;51.214;9.202;2023-01-10T04:39:43;26.33;;;9.77;;
30617;SDS011;17384;51.214;9.202;2023-01-10T04:42:09;20.40;;;7.80;;
30617;SDS011;17384;51.214;9.202;2023-01-10T04:44:34;21.17;;;7.70;;
30617;SDS011;17384;51.214;9.202;2023-01-10T04:47:00;25.63;;;8.65;;
30617;SDS011;17384;51.214;9.202;2023-01-10T04:49:25;18.65;;;7.15;;
30617;SDS011;17384;51.214;9.202;2023-01-10T04:51:51;22.38;;;8.57;;
30617;SDS011;17384;51.214;9.202;2023-01-10T04:54:19;25.92;;;7.43;;
30617;SDS011;17384;51.214;9.202;2023-01-10T04:56:45;14.40;;;6.35;;
30617;SDS011;17384;51.214;9.202;2023-01-10T04:59:11;15.45;;;5.78;;
30617;SDS011;17384;51.214;9.202;2023-01-10T05:01:36;15.88;;;6.25;;
30617;SDS011;17384;51.214;9.202;2023-01-10T05:04:03;13.63;;;5.57;;
30617;SDS011;17384;51.214;9.202;2023-01-10T05:06:29;16.98;;;6.60;;
30617;SDS011;17384;51.214;9.202;2023-01-10T05:08:55;15.48;;;6.60;;
30617;SDS011;17384;51.214;9.202;2023-01-10T05:11:20;17.55;;;6.18;;
30617;SDS011;17384;51.214;9.202;2023-01-10T05:13:45;12.93;;;5.30;;
30617;SDS011;17384;51.214;9.202;2023-01-10T05:16:11;17.17;;;5.95;;
30617;SDS011;17384;51.214;9.202;2023-01-10T05:18:36;14.13;;;5.00;;
30617;SDS011;17384;51.214;9.202;2023-01-10T05:21:03;16.65;;;5.55;;
30617;SDS011;17384;51.214;9.202;2023-01-10T05:23:31;14.73;;;4.70;;
30617;SDS011;17384;51.214;9.202;2023-01-10T05:25:56;13.38;;;4.97;;
30617;SDS011;17384;51.214;9.202;2023-01-10T05:28:22;12.52;;;5.50;;
30617;SDS011;17384;51.214;9.202;2023-01-10T05:30:47;13.63;;;6.45;;
30617;SDS011;17384;51.214;9.202;2023-01-10T05:33:13;12.80;;;5.28;;
30617;SDS011;17384;51.214;9.202;2023-01-10T05:35:39;8.93;;;5.65;;
30617;SDS011;17384;51.214;9.202;2023-01-10T05:38:04;11.18;;;5.13;;
30617;SDS011;17384;51.214;9.202;2023-01-10T05:40:29;12.90;;;5.80;;
30617;SDS011;17384;51.214;9.202;2023-01-10T05:42:55;10.18;;;4.68;;
30617;SDS011;17384;51.214;9.202;2023-01-10T05:45:20;11.82;;;5.35;;
30617;SDS011;17384;51.214;9.202;2023-01-10T05:47:46;14.07;;;5.35;;
30617;SDS011;17384;51.214;9.202;2023-01-10T05:50:11;14.18;;;5.40;;
30617;SDS011;17384;51.214;9.202;2023-01-10T05:52:37;13.65;;;5.10;;
30617;SDS011;17384;51.214;9.202;2023-01-10T05:55:02;10.48;;;4.82;;
30617;SDS011;17384;51.214;9.202;2023-01-10T05:57:29;24.42;;;7.25;;
30617;SDS011;17384;51.214;9.202;2023-01-10T05:59:55;14.63;;;5.72;;
30617;SDS011;17384;51.214;9.202;2023-01-10T06:02:20;12.95;;;5.50;;
30617;SDS011;17384;51.214;9.202;2023-01-10T06:04:47;16.65;;;6.28;;
30617;SDS011;17384;51.214;9.202;2023-01-10T06:07:12;13.40;;;7.22;;
30617;SDS011;17384;51.214;9.202;2023-01-10T06:09:38;24.63;;;7.85;;
30617;SDS011;17384;51.214;9.202;2023-01-10T06:12:03;10.65;;;4.32;;
30617;SDS011;17384;51.214;9.202;2023-01-10T06:14:29;11.75;;;5.82;;
30617;SDS011;17384;51.214;9.202;2023-01-10T06:16:54;20.15;;;4.97;;
30617;SDS011;17384;51.214;9.202;2023-01-10T06:19:20;13.02;;;4.07;;
30617;SDS011;17384;51.214;9.202;2023-01-10T06:21:45;16.98;;;5.57;;
30617;SDS011;17384;51.214;9.202;2023-01-10T06:24:10;13.25;;;4.55;;
30617;SDS011;17384;51.214;9.202;2023-01-10T06:26:36;12.02;;;4.65;;
30617;SDS011;17384;51.214;9.202;2023-01-10T06:29:01;7.53;;;3.90;;
30617;SDS011;17384;51.214;9.202;2023-01-10T06:31:27;14.95;;;5.72;;
30617;SDS011;17384;51.214;9.202;2023-01-10T06:33:52;18.73;;;5.88;;
30617;SDS011;17384;51.214;9.202;2023-01-10T06:36:18;11.52;;;4.43;;
30617;SDS011;17384;51.214;9.202;2023-01-10T06:38:43;9.15;;;4.65;;
30617;SDS011;17384;51.214;9.202;2023-01-10T06:41:09;12.25;;;5.93;;
30617;SDS011;17384;51.214;9.202;2023-01-10T06:43:47;16.95;;;6.40;;
30617;SDS011;17384;51.214;9.202;2023-01-10T06:46:14;15.52;;;5.03;;
30617;SDS011;17384;51.214;9.202;2023-01-10T06:48:42;11.88;;;6.00;;
30617;SDS011;17384;51.214;9.202;2023-01-10T06:51:09;13.60;;;5.03;;
30617;SDS011;17384;51.214;9.202;2023-01-10T06:53:35;13.80;;;4.80;;
30617;SDS011;17384;51.214;9.202;2023-01-10T06:56:01;13.10;;;4.38;;
30617;SDS011;17384;51.214;9.202;2023-01-10T06:58:27;17.83;;;5.38;;
30617;SDS011;17384;51.214;9.202;2023-01-10T07:00:53;11.77;;;4.78;;
30617;SDS011;17384;51.214;9.202;2023-01-10T07:03:18;10.98;;;5.32;;
30617;SDS011;17384;51.214;9.202;2023-01-10T07:05:44;12.82;;;5.10;;
30617;SDS011;17384;51.214;9.202;2023-01-10T07:08:10;13.98;;;5.30;;
30617;SDS011;17384;51.214;9.202;2023-01-10T07:10:35;9.95;;;5.38;;
30617;SDS011;17384;51.214;9.202;2023-01-10T07:13:01;14.82;;;5.03;;
30617;SDS011;17384;51.214;9.202;2023-01-10T07:15:27;17.95;;;5.53;;
30617;SDS011;17384;51.214;9.202;2023-01-10T07:17:54;16.20;;;5.65;;
30617;SDS011;17384;51.214;9.202;2023-01-10T07:20:22;15.27;;;5.03;;
30617;SDS011;17384;51.214;9.202;2023-01-10T07:22:58;17.77;;;5.30;;
30617;SDS011;17384;51.214;9.202;2023-01-10T07:25:25;15.35;;;5.43;;
30617;SDS011;17384;51.214;9.202;2023-01-10T07:27:51;11.82;;;4.97;;
30617;SDS011;17384;51.214;9.202;2023-01-10T07:30:19;8.32;;;5.10;;
30617;SDS011;17384;51.214;9.202;2023-01-10T07:32:56;16.35;;;7.63;;
30617;SDS011;17384;51.214;9.202;2023-01-10T07:35:22;22.70;;;7.95;;
30617;SDS011;17384;51.214;9.202;2023-01-10T07:37:49;13.32;;;5.22;;
30617;SDS011;17384;51.214;9.202;2023-01-10T07:40:15;20.83;;;5.28;;
30617;SDS011;17384;51.214;9.202;2023-01-10T07:42:41;15.23;;;6.70;;
30617;SDS011;17384;51.214;9.202;2023-01-10T07:45:07;18.65;;;5.60;;
30617;SDS011;17384;51.214;9.202;2023-01-10T07:47:32;20.73;;;6.28;;
30617;SDS011;17384;51.214;9.202;2023-01-10T07:49:59;17.08;;;7.25;;
30617;SDS011;17384;51.214;9.202;2023-01-10T07:52:24;23.08;;;8.02;;
30617;SDS011;17384;51.214;9.202;2023-01-10T07:54:50;17.17;;;6.85;;
30617;SDS011;17384;51.214;9.202;2023-01-10T07:57:16;23.75;;;8.45;;
30617;SDS011;17384;51.214;9.202;2023-01-10T07:59:42;14.38;;;6.93;;
30617;SDS011;17384;51.214;9.202;2023-01-10T08:02:08;23.58;;;8.68;;
30617;SDS011;17384;51.214;9.202;2023-01-10T08:04:34;15.43;;;5.90;;
30617;SDS011;17384;51.214;9.202;2023-01-10T08:07:00;17.25;;;7.07;;
30617;SDS011;17384;51.214;9.202;2023-01-10T08:09:25;14.07;;;6.20;;
30617;SDS011;17384;51.214;9.202;2023-01-10T08:11:51;12.02;;;5.95;;
30617;SDS011;17384;51.214;9.202;2023-01-10T08:14:16;17.27;;;8.13;;
30617;SDS011;17384;51.214;9.202;2023-01-10T08:16:41;14.80;;;6.68;;
30617;SDS011;17384;51.214;9.202;2023-01-10T08:19:07;24.67;;;9.00;;
30617;SDS011;17384;51.214;9.202;2023-01-10T08:21:32;20.27;;;9.38;;
30617;SDS011;17384;51.214;9.202;2023-01-10T08:23:58;20.70;;;8.70;;
30617;SDS011;17384;51.214;9.202;2023-01-10T08:26:23;18.58;;;8.50;;
30617;SDS011;17384;51.214;9.202;2023-01-10T08:28:49;28.00;;;8.10;;
30617;SDS011;17384;51.214;9.202;2023-01-10T08:31:14;19.95;;;9.55;;
30617;SDS011;17384;51.214;9.202;2023-01-10T08:33:39;23.73;;;8.60;;
30617;SDS011;17384;51.214;9.202;2023-01-10T08:36:05;24.33;;;9.65;;
30617;SDS011;17384;51.214;9.202;2023-01-10T08:38:38;23.88;;;9.68;;
30617;SDS011;17384;51.214;9.202;2023-01-10T08:41:03;24.00;;;9.52;;
30617;SDS011;17384;51.214;9.202;2023-01-10T08:43:29;22.70;;;10.18;;
30617;SDS011;17384;51.214;9.202;2023-01-10T08:45:54;29.17;;;10.32;;
30617;SDS011;17384;51.214;9.202;2023-01-10T08:48:20;21.75;;;10.55;;
30617;SDS011;17384;51.214;9.202;2023-01-10T08:50:45;32.92;;;10.82;;
30617;SDS011;17384;51.214;9.202;2023-01-10T08:53:11;22.80;;;10.30;;
30617;SDS011;17384;51.214;9.202;2023-01-10T08:55:37;24.55;;;11.00;;
30617;SDS011;17384;51.214;9.202;2023-01-10T08:58:03;19.92;;;10.63;;
30617;SDS011;17384;51.214;9.202;2023-01-10T09:00:28;24.45;;;10.50;;
30617;SDS011;17384;51.214;9.202;2023-01-10T09:02:54;27.67;;;11.18;;
30617;SDS011;17384;51.214;9.202;2023-01-10T09:05:20;32.20;;;10.63;;
30617;SDS011;17384;51.214;9.202;2023-01-10T09:07:45;27.42;;;10.88;;
30617;SDS011;17384;51.214;9.202;2023-01-10T09:10:11;22.48;;;10.75;;
30617;SDS011;17384;51.214;9.202;2023-01-10T09:12:37;31.67;;;12.15;;
30617;SDS011;17384;51.214;9.202;2023-01-10T09:15:25;28.13;;;11.15;;
30617;SDS011;17384;51.214;9.202;2023-01-10T09:17:56;24.50;;;11.15;;
30617;SDS011;17384;51.214;9.202;2023-01-10T09:20:23;28.48;;;11.38;;
30617;SDS011;17384;51.214;9.202;2023-01-10T09:22:50;20.67;;;9.57;;
30617;SDS011;17384;51.214;9.202;2023-01-10T09:25:16;27.63;;;10.55;;
30617;SDS011;17384;51.214;9.202;2023-01-10T09:27:41;21.27;;;11.48;;
30617;SDS011;17384;51.214;9.202;2023-01-10T09:30:07;20.20;;;10.73;;
30617;SDS011;17384;51.214;9.202;2023-01-10T09:32:33;22.35;;;10.50;;
30617;SDS011;17384;51.214;9.202;2023-01-10T09:34:58;21.55;;;9.30;;
30617;SDS011;17384;51.214;9.202;2023-01-10T09:37:24;27.33;;;10.20;;
30617;SDS011;17384;51.214;9.202;2023-01-10T09:39:49;20.42;;;10.45;;
30617;SDS011;17384;51.214;9.202;2023-01-10T09:45:20;17.27;;;9.38;;
30617;SDS011;17384;51.214;9.202;2023-01-10T09:47:50;24.98;;;10.60;;
30617;SDS011;17384;51.214;9.202;2023-01-10T09:52:46;15.52;;;8.20;;
30617;SDS011;17384;51.214;9.202;2023-01-10T09:55:20;19.98;;;9.02;;
30617;SDS011;17384;51.214;9.202;2023-01-10T09:57:50;29.63;;;8.82;;
30617;SDS011;17384;51.214;9.202;2023-01-10T10:00:20;19.80;;;8.10;;
30617;SDS011;17384;51.214;9.202;2023-01-10T10:02:55;25.17;;;8.20;;
30617;SDS011;17384;51.214;9.202;2023-01-10T10:05:25;18.58;;;8.57;;
30617;SDS011;17384;51.214;9.202;2023-01-10T10:07:53;26.55;;;7.55;;
30617;SDS011;17384;51.214;9.202;2023-01-10T10:10:25;22.35;;;7.75;;
30617;SDS011;17384;51.214;9.202;2023-01-10T10:15:57;20.45;;;7.05;;
30617;SDS011;17384;51.214;9.202;2023-01-10T10:18:42;16.23;;;7.60;;
30617;SDS011;17384;51.214;9.202;2023-01-10T10:21:37;19.38;;;7.03;;
30617;SDS011;17384;51.214;9.202;2023-01-10T10:24:34;16.00;;;6.20;;
30617;SDS011;17384;51.214;9.202;2023-01-10T10:30:11;18.27;;;5.80;;
30617;SDS011;17384;51.214;9.202;2023-01-10T10:32:52;16.52;;;5.25;;
30617;SDS011;17384;51.214;9.202;2023-01-10T10:37:51;21.60;;;5.00;;
30617;SDS011;17384;51.214;9.202;2023-01-10T10:40:24;16.13;;;5.07;;
30617;SDS011;17384;51.214;9.202;2023-01-10T10:42:58;13.52;;;4.30;;
30617;SDS011;17384;51.214;9.202;2023-01-10T10:45:40;16.90;;;5.07;;
30617;SDS011;17384;51.214;9.202;2023-01-10T10:48:19;20.25;;;4.07;;
30617;SDS011;17384;51.214;9.202;2023-01-10T10:50:54;17.15;;;5.22;;
30617;SDS011;17384;51.214;9.202;2023-01-10T10:53:22;16.25;;;4.80;;
30617;SDS011;17384;51.214;9.202;2023-01-10T10:55:47;18.58;;;4.68;;
30617;SDS011;17384;51.214;9.202;2023-01-10T10:58:13;27.02;;;5.10;;
30617;SDS011;17384;51.214;9.202;2023-01-10T11:00:39;23.02;;;5.55;;
30617;SDS011;17384;51.214;9.202;2023-01-10T11:03:12;16.15;;;4.00;;
30617;SDS011;17384;51.214;9.202;2023-01-10T11:05:58;23.25;;;5.00;;
30617;SDS011;17384;51.214;9.202;2023-01-10T11:08:25;25.33;;;4.22;;
30617;SDS011;17384;51.214;9.202;2023-01-10T11:10:53;18.05;;;4.25;;
30617;SDS011;17384;51.214;9.202;2023-01-10T11:15:55;13.50;;;4.25;;
30617;SDS011;17384;51.214;9.202;2023-01-10T11:18:22;15.02;;;4.22;;
30617;SDS011;17384;51.214;9.202;2023-01-10T11:20:51;20.70;;;4.63;;
30617;SDS011;17384;51.214;9.202;2023-01-10T11:23:23;17.70;;;5.13;;
30617;SDS011;17384;51.214;9.202;2023-01-10T11:25:50;22.88;;;4.47;;
30617;SDS011;17384;51.214;9.202;2023-01-10T11:28:15;24.33;;;4.35;;
30617;SDS011;17384;51.214;9.202;2023-01-10T11:30:45;19.92;;;4.35;;
30617;SDS011;17384;51.214;9.202;2023-01-10T11:33:18;19.30;;;4.75;;
30617;SDS011;17384;51.214;9.202;2023-01-10T11:35:57;19.80;;;4.57;;
30617;SDS011;17384;51.214;9.202;2023-01-10T11:38:25;19.23;;;6.47;;
30617;SDS011;17384;51.214;9.202;2023-01-10T11:43:39;26.40;;;4.75;;
30617;SDS011;17384;51.214;9.202;2023-01-10T11:46:15;33.50;;;4.55;;
30617;SDS011;17384;51.214;9.202;2023-01-10T11:48:42;26.65;;;7.18;;
30617;SDS011;17384;51.214;9.202;2023-01-10T11:51:18;22.20;;;4.80;;
30617;SDS011;17384;51.214;9.202;2023-01-10T11:53:51;14.45;;;4.45;;
30617;SDS011;17384;51.214;9.202;2023-01-10T11:56:24;21.60;;;4.18;;
30617;SDS011;17384;51.214;9.202;2023-01-10T11:58:54;24.63;;;5.47;;
30617;SDS011;17384;51.214;9.202;2023-01-10T12:01:38;22.83;;;5.15;;
30617;SDS011;17384;51.214;9.202;2023-01-10T12:04:16;29.92;;;6.50;;
30617;SDS011;17384;51.214;9.202;2023-01-10T12:06:45;21.73;;;4.72;;
30617;SDS011;17384;51.214;9.202;2023-01-10T12:09:33;29.70;;;5.60;;
30617;SDS011;17384;51.214;9.202;2023-01-10T12:12:05;19.15;;;6.50;;
30617;SDS011;17384;51.214;9.202;2023-01-10T12:14:38;16.83;;;4.32;;
30617;SDS011;17384;51.214;9.202;2023-01-10T12:17:03;25.38;;;4.68;;
30617;SDS011;17384;51.214;9.202;2023-01-10T12:19:29;16.20;;;4.78;;
30617;SDS011;17384;51.214;9.202;2023-01-10T12:21:57;16.05;;;3.97;;
30617;SDS011;17384;51.214;9.202;2023-01-10T12:24:31;25.05;;;5.85;;
30617;SDS011;17384;51.214;9.202;2023-01-10T12:27:01;20.55;;;5.55;;
30617;SDS011;17384;51.214;9.202;2023-01-10T12:29:30;18.85;;;3.60;;
30617;SDS011;17384;51.214;9.202;2023-01-10T12:31:58;23.23;;;4.57;;
30617;SDS011;17384;51.214;9.202;2023-01-10T12:34:26;16.60;;;3.63;;
30617;SDS011;17384;51.214;9.202;2023-01-10T12:37:20;15.57;;;4.88;;
30617;SDS011;17384;51.214;9.202;2023-01-10T12:40:11;19.65;;;4.72;;
30617;SDS011;17384;51.214;9.202;2023-01-10T12:43:06;12.23;;;3.63;;
30617;SDS011;17384;51.214;9.202;2023-01-10T12:45:57;17.75;;;3.67;;
30617;SDS011;17384;51.214;9.202;2023-01-10T12:48:29;21.30;;;3.45;;
30617;SDS011;17384;51.214;9.202;2023-01-10T12:51:17;18.52;;;5.05;;
30617;SDS011;17384;51.214;9.202;2023-01-10T12:53:59;12.82;;;3.70;;
30617;SDS011;17384;51.214;9.202;2023-01-10T12:56:36;22.48;;;4.03;;
30617;SDS011;17384;51.214;9.202;2023-01-10T12:59:04;23.77;;;4.10;;
30617;SDS011;17384;51.214;9.202;2023-01-10T13:01:39;21.20;;;4.78;;
30617;SDS011;17384;51.214;9.202;2023-01-10T13:04:14;22.05;;;3.38;;
30617;SDS011;17384;51.214;9.202;2023-01-10T13:06:44;13.15;;;4.10;;
30617;SDS011;17384;51.214;9.202;2023-01-10T13:09:23;24.73;;;4.40;;
30617;SDS011;17384;51.214;9.202;2023-01-10T13:14:58;17.80;;;4.63;;
30617;SDS011;17384;51.214;9.202;2023-01-10T13:18:03;24.70;;;4.10;;
30617;SDS011;17384;51.214;9.202;2023-01-10T13:20:41;30.55;;;5.53;;
30617;SDS011;17384;51.214;9.202;2023-01-10T13:23:14;16.77;;;3.78;;
30617;SDS011;17384;51.214;9.202;2023-01-10T13:25:53;30.60;;;3.47;;
30617;SDS011;17384;51.214;9.202;2023-01-10T13:28:24;17.52;;;4.32;;
30617;SDS011;17384;51.214;9.202;2023-01-10T13:30:53;20.95;;;3.72;;
30617;SDS011;17384;51.214;9.202;2023-01-10T13:33:32;24.17;;;4.00;;
30617;SDS011;17384;51.214;9.202;2023-01-10T13:36:24;29.08;;;5.00;;
30617;SDS011;17384;51.214;9.202;2023-01-10T13:38:56;25.00;;;4.15;;
30617;SDS011;17384;51.214;9.202;2023-01-10T13:41:25;18.08;;;4.30;;
30617;SDS011;17384;51.214;9.202;2023-01-10T13:52:54;25.65;;;4.68;;
30617;SDS011;17384;51.214;9.202;2023-01-10T14:04:20;25.05;;;3.75;;
30617;SDS011;17384;51.214;9.202;2023-01-10T14:06:57;17.75;;;3.60;;
30617;SDS011;17384;51.214;9.202;2023-01-10T14:09:46;22.45;;;3.72;;
30617;SDS011;17384;51.214;9.202;2023-01-10T14:12:22;13.35;;;4.25;;
30617;SDS011;17384;51.214;9.202;2023-01-10T14:14:59;22.63;;;3.88;;
30617;SDS011;17384;51.214;9.202;2023-01-10T14:17:29;26.55;;;4.00;;
30617;SDS011;17384;51.214;9.202;2023-01-10T14:19:59;11.98;;;3.55;;
30617;SDS011;17384;51.214;9.202;2023-01-10T14:22:27;21.15;;;4.70;;
30617;SDS011;17384;51.214;9.202;2023-01-10T14:25:00;24.77;;;5.22;;
30617;SDS011;17384;51.214;9.202;2023-01-10T14:27:50;24.55;;;5.25;;
30617;SDS011;17384;51.214;9.202;2023-01-10T14:30:16;25.02;;;3.95;;
30617;SDS011;17384;51.214;9.202;2023-01-10T14:33:19;26.48;;;5.00;;
30617;SDS011;17384;51.214;9.202;2023-01-10T14:35:49;25.00;;;3.20;;
30617;SDS011;17384;51.214;9.202;2023-01-10T14:38:24;11.40;;;3.00;;
30617;SDS011;17384;51.214;9.202;2023-01-10T14:40:54;18.83;;;3.95;;
30617;SDS011;17384;51.214;9.202;2023-01-10T14:43:26;18.70;;;4.40;;
30617;SDS011;17384;51.214;9.202;2023-01-10T14:46:02;17.83;;;4.07;;
30617;SDS011;17384;51.214;9.202;2023-01-10T14:48:39;17.52;;;3.83;;
30617;SDS011;17384;51.214;9.202;2023-01-10T14:53:54;19.45;;;3.58;;
30617;SDS011;17384;51.214;9.202;2023-01-10T14:56:44;18.63;;;3.90;;
30617;SDS011;17384;51.214;9.202;2023-01-10T14:59:24;16.40;;;3.33;;
30617;SDS011;17384;51.214;9.202;2023-01-10T15:01:55;16.25;;;3.17;;
30617;SDS011;17384;51.214;9.202;2023-01-10T15:04:34;19.27;;;3.10;;
30617;SDS011;17384;51.214;9.202;2023-01-10T15:07:10;20.75;;;3.90;;
30617;SDS011;17384;51.214;9.202;2023-01-10T15:09:45;10.05;;;3.17;;
30617;SDS011;17384;51.214;9.202;2023-01-10T15:12:12;12.40;;;2.80;;
30617;SDS011;17384;51.214;9.202;2023-01-10T15:14:40;17.00;;;3.28;;
30617;SDS011;17384;51.214;9.202;2023-01-10T15:17:05;16.92;;;3.88;;
30617;SDS011;17384;51.214;9.202;2023-01-10T15:19:37;20.25;;;3.45;;
30617;SDS011;17384;51.214;9.202;2023-01-10T15:22:15;17.33;;;3.80;;
30617;SDS011;17384;51.214;9.202;2023-01-10T15:24:58;12.07;;;3.80;;
30617;SDS011;17384;51.214;9.202;2023-01-10T15:27:32;18.98;;;4.93;;
30617;SDS011;17384;51.214;9.202;2023-01-10T15:29:58;15.50;;;3.17;;
30617;SDS011;17384;51.214;9.202;2023-01-10T15:34:53;17.13;;;6.13;;
30617;SDS011;17384;51.214;9.202;2023-01-10T15:37:21;19.08;;;3.33;;
30617;SDS011;17384;51.214;9.202;2023-01-10T15:39:50;18.33;;;3.50;;
30617;SDS011;17384;51.214;9.202;2023-01-10T15:42:18;19.92;;;4.28;;
30617;SDS011;17384;51.214;9.202;2023-01-10T15:44:46;16.95;;;4.85;;
30617;SDS011;17384;51.214;9.202;2023-01-10T15:47:38;19.98;;;3.45;;
30617;SDS011;17384;51.214;9.202;2023-01-10T15:50:20;25.20;;;9.93;;
30617;SDS011;17384;51.214;9.202;2023-01-10T15:52:56;23.40;;;4.78;;
30617;SDS011;17384;51.214;9.202;2023-01-10T15:58:04;17.92;;;3.05;;
30617;SDS011;17384;51.214;9.202;2023-01-10T16:00:41;21.70;;;3.90;;
30617;SDS011;17384;51.214;9.202;2023-01-10T16:05:52;18.52;;;4.38;;
30617;SDS011;17384;51.214;9.202;2023-01-10T16:08:23;21.55;;;4.10;;
30617;SDS011;17384;51.214;9.202;2023-01-10T16:10:51;21.23;;;3.75;;
30617;SDS011;17384;51.214;9.202;2023-01-10T16:13:19;21.80;;;4.85;;
30617;SDS011;17384;51.214;9.202;2023-01-10T16:15:51;34.63;;;3.97;;